Time;durP1;ratioP1;P1;durP2;ratioP2;P2;SDS_P1;SDS_P2;PMS_P1;PMS_P2;Temp;Humidity;BMP_temperature;BMP_pressure;BME280_temperature;BME280_humidity;BME280_pressure;Samples;Min_cycle;Max_cycle;Signal;HPM_P1;HPM_P2
2022/05/14 00:01:23;;;;;;;4.30;2.50;;;;;;100509.98;;;;107306;1279;28489;-31
2022/05/14 00:03:50;;;;;;;4.10;2.30;;;;;;100515.37;;;;107473;1279;30750;-28
2022/05/14 00:06:26;;;;;;;4.70;2.50;;;;;;100514.91;;;;107517;1279;28273;-28
2022/05/14 00:08:53;;;;;;;4.20;2.60;;;;;;100516.09;;;;107511;1279;26280;-31
2022/05/14 00:14:08;;;;;;;4.30;2.60;;;;;;100518.35;;;;107531;1279;28263;-30
2022/05/14 00:16:36;;;;;;;4.20;2.70;;;;;;100515.89;;;;107546;1281;27929;-31
2022/05/14 00:19:07;;;;;;;3.90;2.50;;;;;;100517.14;;;;107530;1279;28509;-31
2022/05/14 00:21:35;;;;;;;4.70;2.40;;;;;;100517.10;;;;107511;1279;27942;-31
2022/05/14 00:24:06;;;;;;;4.50;2.30;;;;;;100518.27;;;;107545;1279;27338;-32
2022/05/14 00:26:35;;;;;;;4.80;2.50;;;;;;100522.36;;;;107527;1279;30486;-27
2022/05/14 00:29:05;;;;;;;4.60;2.40;;;;;;100521.23;;;;107541;1279;27303;-27
2022/05/14 00:31:32;;;;;;;4.60;2.50;;;;;;100523.58;;;;107526;1279;28478;-28
2022/05/14 00:34:00;;;;;;;3.80;2.50;;;;;;100523.05;;;;107512;1279;28297;-27
2022/05/14 00:36:27;;;;;;;4.00;2.50;;;;;;100522.54;;;;107505;1279;28532;-30
2022/05/14 00:38:54;;;;;;;4.20;2.40;;;;;;100520.64;;;;107536;1279;27703;-32
2022/05/14 00:41:24;;;;;;;4.60;2.40;;;;;;100522.89;;;;107274;1279;26596;-31
2022/05/14 00:43:58;;;;;;;3.70;2.30;;;;;;100525.73;;;;107510;1279;27526;-28
2022/05/14 00:46:40;;;;;;;5.10;2.70;;;;;;100523.25;;;;107531;1279;30469;-27
2022/05/14 00:49:08;;;;;;;3.90;2.50;;;;;;100526.08;;;;107521;1279;27608;-28
2022/05/14 00:51:36;;;;;;;3.60;2.40;;;;;;100527.09;;;;107532;1281;25816;-28
2022/05/14 00:54:08;;;;;;;3.90;2.40;;;;;;100527.40;;;;107545;1281;26592;-28
2022/05/14 00:56:42;;;;;;;3.90;2.50;;;;;;100528.95;;;;107464;1281;28388;-30
2022/05/14 00:59:14;;;;;;;4.10;2.40;;;;;;100529.21;;;;107515;1279;30596;-31
2022/05/14 01:01:41;;;;;;;4.30;2.80;;;;;;100529.80;;;;107432;1281;30266;-31
2022/05/14 01:04:10;;;;;;;4.10;2.70;;;;;;100532.39;;;;107513;1279;28456;-31
2022/05/14 01:06:41;;;;;;;4.10;2.50;;;;;;100526.48;;;;107292;1282;27184;-28
2022/05/14 01:09:09;;;;;;;4.30;2.70;;;;;;100526.66;;;;107532;1279;29324;-28
2022/05/14 01:11:38;;;;;;;4.20;2.40;;;;;;100523.76;;;;107505;1279;27224;-28
2022/05/14 01:14:06;;;;;;;4.50;2.40;;;;;;100521.05;;;;107507;1279;26107;-28
2022/05/14 01:16:34;;;;;;;4.10;2.50;;;;;;100517.35;;;;107463;1279;25879;-28
2022/05/14 01:19:02;;;;;;;4.60;2.50;;;;;;100517.05;;;;107553;1281;28378;-28
2022/05/14 01:21:41;;;;;;;5.00;2.80;;;;;;100515.67;;;;107508;1279;26104;-30
2022/05/14 01:27:32;;;;;;;4.00;2.50;;;;;;100519.59;;;;107486;1281;30098;-31
2022/05/14 01:30:00;;;;;;;4.40;2.60;;;;;;100517.74;;;;107530;1281;28388;-31
2022/05/14 01:32:27;;;;;;;4.60;2.70;;;;;;100521.60;;;;107511;1281;28109;-31
2022/05/14 01:34:54;;;;;;;3.90;2.50;;;;;;100521.59;;;;107507;1283;30247;-31
2022/05/14 01:37:24;;;;;;;4.70;2.80;;;;;;100523.51;;;;107497;1281;27959;-28
2022/05/14 01:39:52;;;;;;;4.30;2.70;;;;;;100517.77;;;;107513;1281;28471;-27
2022/05/14 01:42:20;;;;;;;4.40;2.70;;;;;;100515.92;;;;107492;1281;28423;-31
2022/05/14 01:44:47;;;;;;;3.60;2.50;;;;;;100517.17;;;;107526;1281;30513;-32
2022/05/14 01:47:14;;;;;;;5.90;2.70;;;;;;100513.92;;;;107501;1281;29338;-27
2022/05/14 01:49:42;;;;;;;4.20;2.50;;;;;;100512.16;;;;107500;1281;26087;-28
2022/05/14 01:52:09;;;;;;;4.10;2.70;;;;;;100513.88;;;;107477;1281;28291;-28
2022/05/14 01:54:36;;;;;;;4.60;2.80;;;;;;100519.56;;;;107502;1281;25930;-29
2022/05/14 01:57:05;;;;;;;4.30;2.50;;;;;;100524.89;;;;107500;1281;26677;-27
2022/05/14 01:59:32;;;;;;;3.90;2.60;;;;;;100520.48;;;;107483;1281;25900;-28
2022/05/14 02:02:00;;;;;;;4.10;2.60;;;;;;100521.27;;;;107501;1281;25830;-32
2022/05/14 02:04:28;;;;;;;4.00;2.70;;;;;;100521.29;;;;107509;1281;27746;-29
2022/05/14 02:06:55;;;;;;;3.80;2.70;;;;;;100524.29;;;;107513;1281;28494;-27
2022/05/14 02:09:22;;;;;;;3.90;2.40;;;;;;100525.48;;;;107479;1281;30432;-28
2022/05/14 02:11:49;;;;;;;4.10;2.80;;;;;;100527.23;;;;107496;1279;30568;-27
2022/05/14 02:14:16;;;;;;;4.50;2.80;;;;;;100520.04;;;;107525;1281;28407;-29
2022/05/14 02:16:43;;;;;;;4.00;2.60;;;;;;100515.13;;;;107529;1281;25894;-31
2022/05/14 02:19:10;;;;;;;3.90;2.40;;;;;;100513.05;;;;107501;1281;30665;-30
2022/05/14 02:21:38;;;;;;;5.30;2.60;;;;;;100513.56;;;;107533;1279;27879;-31
2022/05/14 02:24:05;;;;;;;4.30;2.70;;;;;;100521.23;;;;107444;1281;25898;-31
2022/05/14 02:26:33;;;;;;;3.80;2.50;;;;;;100526.25;;;;107480;1279;26042;-29
2022/05/14 02:29:00;;;;;;;4.30;3.00;;;;;;100529.06;;;;107487;1281;28323;-31
2022/05/14 02:31:27;;;;;;;4.40;2.80;;;;;;100524.77;;;;107451;1281;27808;-28
2022/05/14 02:33:55;;;;;;;4.50;2.80;;;;;;100525.02;;;;107422;1281;27403;-28
2022/05/14 02:36:22;;;;;;;4.60;2.70;;;;;;100522.13;;;;107525;1277;25868;-28
2022/05/14 02:38:50;;;;;;;4.40;2.70;;;;;;100523.64;;;;107576;1277;26130;-30
2022/05/14 02:41:17;;;;;;;4.30;2.50;;;;;;100521.85;;;;107405;1277;251941;-31
2022/05/14 02:43:44;;;;;;;4.40;2.80;;;;;;100522.66;;;;107590;1277;27015;-31
2022/05/14 02:46:14;;;;;;;4.30;2.70;;;;;;100517.40;;;;107506;1281;26671;-31
2022/05/14 02:48:42;;;;;;;4.20;2.80;;;;;;100514.61;;;;107556;1278;26101;-32
2022/05/14 02:51:10;;;;;;;3.80;2.50;;;;;;100511.26;;;;107564;1278;26958;-30
2022/05/14 02:53:37;;;;;;;4.40;2.80;;;;;;100510.33;;;;107560;1278;28313;-29
2022/05/14 02:56:05;;;;;;;3.60;2.30;;;;;;100509.61;;;;107593;1277;30193;-31
2022/05/14 03:01:19;;;;;;;4.50;2.80;;;;;;100513.39;;;;107583;1277;26062;-28
2022/05/14 03:03:46;;;;;;;5.20;2.70;;;;;;100515.36;;;;107579;1278;28373;-30
2022/05/14 03:06:13;;;;;;;4.40;2.60;;;;;;100518.47;;;;107377;1281;28467;-32
2022/05/14 03:08:40;;;;;;;4.30;2.60;;;;;;100516.21;;;;107560;1277;28395;-31
2022/05/14 03:11:07;;;;;;;3.90;2.20;;;;;;100512.48;;;;107572;1278;27206;-31
2022/05/14 03:13:35;;;;;;;3.40;2.40;;;;;;100520.06;;;;107545;1277;28236;-28
2022/05/14 03:16:02;;;;;;;4.10;2.60;;;;;;100521.34;;;;107552;1277;27126;-28
2022/05/14 03:18:29;;;;;;;4.10;2.60;;;;;;100523.55;;;;107559;1278;28279;-32
2022/05/14 03:20:56;;;;;;;4.10;2.80;;;;;;100521.14;;;;107570;1278;25940;-31
2022/05/14 03:23:23;;;;;;;4.00;2.30;;;;;;100524.30;;;;107552;1278;28139;-31
2022/05/14 03:25:50;;;;;;;3.80;2.40;;;;;;100515.92;;;;107556;1278;28455;-31
2022/05/14 03:28:18;;;;;;;4.50;2.50;;;;;;100523.21;;;;107561;1277;28351;-31
2022/05/14 03:30:45;;;;;;;4.00;2.60;;;;;;100521.77;;;;107508;1279;28104;-31
2022/05/14 03:33:12;;;;;;;4.80;2.60;;;;;;100522.27;;;;107587;1277;31000;-33
2022/05/14 03:35:40;;;;;;;3.90;2.60;;;;;;100522.52;;;;107589;1277;27143;-28
2022/05/14 03:38:07;;;;;;;4.20;2.30;;;;;;100522.50;;;;107593;1277;28420;-27
2022/05/14 03:40:34;;;;;;;4.30;2.40;;;;;;100523.89;;;;107566;1278;25899;-29
2022/05/14 03:43:01;;;;;;;3.90;2.40;;;;;;100527.59;;;;107548;1278;27420;-32
2022/05/14 03:45:29;;;;;;;4.00;2.20;;;;;;100529.95;;;;107526;1278;28333;-32
2022/05/14 03:47:55;;;;;;;4.30;2.30;;;;;;100532.80;;;;107487;1279;28528;-29
2022/05/14 03:50:23;;;;;;;4.40;2.60;;;;;;100533.36;;;;107556;1280;28397;-31
2022/05/14 03:52:50;;;;;;;4.20;2.20;;;;;;100535.48;;;;107579;1277;28340;-31
2022/05/14 03:55:17;;;;;;;4.20;2.20;;;;;;100536.92;;;;107581;1278;28381;-31
2022/05/14 03:57:45;;;;;;;4.00;2.30;;;;;;100535.27;;;;107593;1277;25875;-28
2022/05/14 04:00:13;;;;;;;4.10;2.30;;;;;;100533.20;;;;107573;1278;27166;-27
2022/05/14 04:02:40;;;;;;;4.30;2.30;;;;;;100532.10;;;;107588;1278;28326;-28
2022/05/14 04:05:08;;;;;;;3.70;2.30;;;;;;100527.42;;;;107581;1277;27091;-28
2022/05/14 04:07:35;;;;;;;3.80;2.30;;;;;;100531.62;;;;107564;1277;27131;-31
2022/05/14 04:10:04;;;;;;;4.30;2.30;;;;;;100523.77;;;;107574;1277;28485;-32
2022/05/14 04:12:32;;;;;;;4.00;2.40;;;;;;100518.34;;;;107598;1277;28538;-32
2022/05/14 04:14:59;;;;;;;5.20;2.50;;;;;;100523.13;;;;107566;1277;25890;-31
2022/05/14 04:17:27;;;;;;;3.70;2.60;;;;;;100520.27;;;;107551;1277;25835;-31
2022/05/14 04:19:54;;;;;;;4.30;2.20;;;;;;100519.13;;;;107598;1277;28378;-31
2022/05/14 04:22:21;;;;;;;3.70;2.00;;;;;;100516.14;;;;107559;1277;27813;-32
2022/05/14 04:24:49;;;;;;;4.80;2.40;;;;;;100519.92;;;;107555;1277;27274;-32
2022/05/14 04:27:16;;;;;;;5.40;2.20;;;;;;100521.96;;;;107558;1278;27795;-32
2022/05/14 04:29:43;;;;;;;5.10;2.60;;;;;;100520.80;;;;107566;1277;28231;-32
2022/05/14 04:32:10;;;;;;;5.50;2.50;;;;;;100525.88;;;;107580;1277;27292;-29
2022/05/14 04:34:37;;;;;;;3.50;2.00;;;;;;100525.77;;;;107566;1278;28471;-28
2022/05/14 04:37:04;;;;;;;3.60;2.10;;;;;;100529.59;;;;107579;1277;27421;-28
2022/05/14 04:39:34;;;;;;;3.80;2.10;;;;;;100530.28;;;;107607;1278;28626;-29
2022/05/14 04:42:07;;;;;;;4.10;2.10;;;;;;100524.48;;;;107582;1278;28443;-32
2022/05/14 04:44:36;;;;;;;4.30;2.20;;;;;;100518.96;;;;107599;1278;28922;-31
2022/05/14 04:47:05;;;;;;;4.00;2.00;;;;;;100517.87;;;;107590;1277;28577;-28
2022/05/14 04:49:32;;;;;;;4.30;2.30;;;;;;100516.39;;;;107510;1278;28385;-28
2022/05/14 04:51:59;;;;;;;4.20;2.00;;;;;;100517.44;;;;107556;1277;28410;-32
2022/05/14 04:54:26;;;;;;;4.00;2.20;;;;;;100513.36;;;;107577;1277;25965;-31
2022/05/14 04:56:54;;;;;;;4.00;2.40;;;;;;100516.59;;;;107569;1277;28186;-30
2022/05/14 04:59:21;;;;;;;3.60;1.90;;;;;;100513.20;;;;107566;1277;30505;-36
2022/05/14 05:04:35;;;;;;;4.50;2.10;;;;;;100514.61;;;;107574;1278;30360;-28
2022/05/14 05:07:04;;;;;;;4.70;2.20;;;;;;100517.46;;;;107539;1277;28425;-28
2022/05/14 05:09:32;;;;;;;3.90;2.30;;;;;;100520.52;;;;107565;1278;26289;-28
2022/05/14 05:11:59;;;;;;;3.90;2.20;;;;;;100523.91;;;;107497;1278;25740;-31
2022/05/14 05:14:27;;;;;;;3.70;2.00;;;;;;100527.27;;;;107470;1278;28468;-31
2022/05/14 05:16:54;;;;;;;4.30;2.20;;;;;;100522.42;;;;107509;1278;27170;-28
2022/05/14 05:19:22;;;;;;;4.20;2.00;;;;;;100523.94;;;;107557;1278;28304;-28
2022/05/14 05:21:49;;;;;;;4.60;2.00;;;;;;100518.27;;;;107583;1277;27233;-30
2022/05/14 05:24:17;;;;;;;4.10;2.10;;;;;;100519.50;;;;107593;1278;28309;-31
2022/05/14 05:26:45;;;;;;;3.80;1.90;;;;;;100521.38;;;;107619;1278;28453;-28
2022/05/14 05:29:12;;;;;;;3.90;2.20;;;;;;100510.80;;;;107587;1278;25830;-27
2022/05/14 05:31:39;;;;;;;4.40;2.00;;;;;;100507.67;;;;107554;1278;27269;-29
2022/05/14 05:34:06;;;;;;;4.00;2.10;;;;;;100498.94;;;;107578;1277;25722;-28
2022/05/14 05:36:34;;;;;;;3.40;2.00;;;;;;100499.55;;;;107574;1278;28426;-28
2022/05/14 05:39:01;;;;;;;4.00;2.20;;;;;;100494.70;;;;107570;1277;28507;-28
2022/05/14 05:41:28;;;;;;;4.00;2.10;;;;;;100488.67;;;;107567;1277;28487;-28
2022/05/14 05:43:56;;;;;;;5.00;2.30;;;;;;100490.58;;;;107593;1278;25926;-28
2022/05/14 05:46:23;;;;;;;4.60;2.10;;;;;;100487.35;;;;107606;1278;30527;-29
2022/05/14 05:48:50;;;;;;;4.10;2.20;;;;;;100485.42;;;;107587;1277;25985;-31
2022/05/14 05:51:17;;;;;;;3.90;2.30;;;;;;100487.62;;;;107511;1278;28454;-32
2022/05/14 05:59:18;;;;;;;4.80;2.30;;;;;;100488.58;;;;107507;1278;26134;-27
2022/05/14 06:01:47;;;;;;;5.00;2.20;;;;;;100482.63;;;;107595;1278;27242;-31
2022/05/14 06:04:14;;;;;;;4.90;2.30;;;;;;100480.70;;;;107504;1280;28634;-31
2022/05/14 06:06:42;;;;;;;4.00;2.10;;;;;;100471.63;;;;107564;1278;28591;-31
2022/05/14 06:09:17;;;;;;;5.10;2.30;;;;;;100471.86;;;;107594;1278;27686;-30
2022/05/14 06:11:45;;;;;;;4.40;2.10;;;;;;100470.05;;;;107468;1279;28340;-30
2022/05/14 06:14:13;;;;;;;4.00;2.10;;;;;;100478.03;;;;107505;1279;28276;-31
2022/05/14 06:16:40;;;;;;;3.90;2.20;;;;;;100483.70;;;;107617;1278;27243;-30
2022/05/14 06:19:08;;;;;;;4.30;2.20;;;;;;100487.21;;;;107556;1277;28436;-31
2022/05/14 06:21:37;;;;;;;4.80;2.60;;;;;;100494.48;;;;107587;1277;30376;-29
2022/05/14 06:24:07;;;;;;;4.20;2.30;;;;;;100500.77;;;;107588;1278;25758;-30
2022/05/14 06:26:34;;;;;;;4.60;2.10;;;;;;100501.06;;;;107602;1277;26125;-28
2022/05/14 06:29:01;;;;;;;4.60;2.40;;;;;;100503.04;;;;107498;1279;28387;-28
2022/05/14 06:31:29;;;;;;;5.70;2.20;;;;;;100501.88;;;;107492;1278;26069;-28
2022/05/14 06:33:56;;;;;;;4.30;2.20;;;;;;100497.54;;;;107576;1277;28445;-29
2022/05/14 06:36:25;;;;;;;4.00;1.90;;;;;;100498.84;;;;107513;1278;28610;-28
2022/05/14 06:38:53;;;;;;;4.50;2.30;;;;;;100498.18;;;;107590;1277;29419;-31
2022/05/14 06:41:20;;;;;;;4.70;2.20;;;;;;100491.34;;;;107570;1277;30685;-31
2022/05/14 06:43:48;;;;;;;3.80;1.90;;;;;;100491.16;;;;107585;1277;28392;-28
2022/05/14 06:46:15;;;;;;;5.60;2.50;;;;;;100497.27;;;;107590;1278;28353;-28
2022/05/14 06:48:43;;;;;;;4.90;2.00;;;;;;100500.26;;;;107589;1277;28447;-28
2022/05/14 06:51:24;;;;;;;4.30;2.00;;;;;;100500.55;;;;107608;1278;28281;-27
2022/05/14 06:53:53;;;;;;;5.10;2.20;;;;;;100493.88;;;;107599;1278;28101;-28
2022/05/14 06:56:21;;;;;;;5.30;2.50;;;;;;100492.16;;;;107600;1277;26115;-28
2022/05/14 06:58:50;;;;;;;4.10;2.00;;;;;;100489.98;;;;107569;1278;28191;-29
2022/05/14 07:01:19;;;;;;;4.10;2.00;;;;;;100490.17;;;;107596;1278;28520;-29
2022/05/14 07:06:38;;;;;;;4.50;2.20;;;;;;100481.24;;;;107567;1278;28442;-29
2022/05/14 07:09:12;;;;;;;5.30;2.50;;;;;;100478.60;;;;107593;1278;27908;-28
2022/05/14 07:11:43;;;;;;;4.30;2.10;;;;;;100480.98;;;;107571;1278;28430;-28
2022/05/14 07:14:12;;;;;;;3.90;1.90;;;;;;100481.55;;;;107602;1277;30589;-28
2022/05/14 07:16:41;;;;;;;4.40;2.30;;;;;;100477.70;;;;107597;1277;27430;-31
2022/05/14 07:19:08;;;;;;;4.70;2.00;;;;;;100484.02;;;;107161;1279;28395;-31
2022/05/14 07:21:37;;;;;;;3.90;2.10;;;;;;100478.11;;;;107509;1278;28017;-29
2022/05/14 07:24:07;;;;;;;4.80;1.90;;;;;;100482.11;;;;107608;1277;28363;-28
2022/05/14 07:26:36;;;;;;;5.40;2.20;;;;;;100480.02;;;;107593;1277;28414;-27
2022/05/14 07:29:11;;;;;;;5.10;2.10;;;;;;100474.11;;;;107491;1278;28535;-27
2022/05/14 07:31:39;;;;;;;5.60;2.60;;;;;;100472.69;;;;107411;1277;27133;-33
2022/05/14 07:34:07;;;;;;;6.10;2.40;;;;;;100468.52;;;;107871;1278;27253;-31
2022/05/14 07:36:43;;;;;;;4.80;2.40;;;;;;100471.77;;;;107409;1279;27082;-30
2022/05/14 07:39:12;;;;;;;6.70;2.50;;;;;;100468.17;;;;107475;1279;30166;-31
2022/05/14 07:41:42;;;;;;;6.00;2.40;;;;;;100470.02;;;;107591;1277;29318;-31
2022/05/14 07:44:11;;;;;;;5.20;2.60;;;;;;100472.64;;;;107503;1279;28397;-30
2022/05/14 07:46:39;;;;;;;5.70;2.50;;;;;;100468.75;;;;107542;1277;28358;-31
2022/05/14 07:49:13;;;;;;;4.90;2.30;;;;;;100469.83;;;;107547;1277;30601;-30
2022/05/14 07:51:41;;;;;;;5.10;2.20;;;;;;100467.93;;;;107516;1278;30730;-31
2022/05/14 07:54:08;;;;;;;6.30;3.00;;;;;;100465.28;;;;107529;1278;28574;-31
2022/05/14 07:56:35;;;;;;;5.90;2.20;;;;;;100454.97;;;;107475;1277;27272;-30
2022/05/14 07:59:03;;;;;;;4.70;2.10;;;;;;100458.89;;;;107501;1279;28410;-35
2022/05/14 08:01:30;;;;;;;6.30;2.90;;;;;;100465.21;;;;107455;1281;28422;-31
2022/05/14 08:03:58;;;;;;;8.30;2.50;;;;;;100464.58;;;;107507;1278;28091;-31
2022/05/14 08:06:25;;;;;;;4.70;2.00;;;;;;100457.40;;;;107579;1278;30131;-30
2022/05/14 08:08:54;;;;;;;5.70;2.30;;;;;;100453.34;;;;107582;1277;30367;-30
2022/05/14 08:11:21;;;;;;;5.20;2.30;;;;;;100457.30;;;;107611;1277;28544;-31
2022/05/14 08:13:50;;;;;;;4.50;2.00;;;;;;100453.65;;;;107569;1278;28284;-28
2022/05/14 08:16:18;;;;;;;5.20;1.90;;;;;;100460.83;;;;107617;1278;28868;-26
2022/05/14 08:18:45;;;;;;;4.90;2.20;;;;;;100455.59;;;;107582;1277;28369;-30
2022/05/14 08:29:58;;;;;;;5.20;2.00;;;;;;100447.74;;;;105446;1290;28451;-22
2022/05/14 08:32:25;;;;;;;5.60;2.00;;;;;;100445.33;;;;106263;1291;30686;-23
2022/05/14 08:34:52;;;;;;;5.30;1.80;;;;;;100453.84;;;;106070;1291;26892;-24
2022/05/14 08:37:20;;;;;;;4.70;1.90;;;;;;100457.16;;;;106270;1290;25908;-21
2022/05/14 08:39:47;;;;;;;4.20;2.00;;;;;;100452.73;;;;106114;1291;28260;-21
2022/05/14 08:42:15;;;;;;;4.80;1.90;;;;;;100453.13;;;;105719;1291;28459;-23
2022/05/14 08:44:44;;;;;;;4.80;1.70;;;;;;100454.29;;;;106251;1291;28535;-22
2022/05/14 08:47:36;;;;;;;5.10;2.10;;;;;;100459.79;;;;106077;1288;27590;-23
2022/05/14 08:50:05;;;;;;;4.90;2.10;;;;;;100463.08;;;;106597;1287;28564;-24
2022/05/14 08:52:34;;;;;;;5.10;1.80;;;;;;100470.98;;;;106210;1287;30395;-24
2022/05/14 08:55:06;;;;;;;4.70;1.80;;;;;;100470.30;;;;106261;1290;27368;-21
2022/05/14 08:57:58;;;;;;;5.40;1.80;;;;;;100463.48;;;;106411;1288;27166;-21
2022/05/14 09:00:33;;;;;;;4.70;2.20;;;;;;100458.00;;;;106574;1287;28008;-22
2022/05/14 09:03:00;;;;;;;4.70;1.80;;;;;;100462.52;;;;106357;1288;27655;-21
2022/05/14 09:05:35;;;;;;;4.30;1.80;;;;;;100461.20;;;;106231;1288;26463;-19
2022/05/14 09:08:07;;;;;;;4.60;2.00;;;;;;100461.66;;;;106169;1288;28648;-23
2022/05/14 09:10:41;;;;;;;4.00;1.80;;;;;;100461.14;;;;106099;1291;28338;-24
2022/05/14 09:13:08;;;;;;;5.70;2.70;;;;;;100443.54;;;;106318;1288;28556;-24
2022/05/14 09:15:48;;;;;;;4.50;1.80;;;;;;100445.58;;;;106410;1288;25840;-22
2022/05/14 09:18:31;;;;;;;3.80;1.60;;;;;;100442.95;;;;106266;1288;26026;-23
2022/05/14 09:21:04;;;;;;;3.50;1.60;;;;;;100444.14;;;;106417;1288;27652;-23
2022/05/14 09:23:38;;;;;;;5.00;1.80;;;;;;100441.80;;;;107465;1278;27814;-22
2022/05/14 09:26:34;;;;;;;5.40;1.80;;;;;;100445.79;;;;106709;1287;28533;-23
2022/05/14 09:29:25;;;;;;;5.50;1.70;;;;;;100440.56;;;;106684;1287;28411;-21
2022/05/14 09:32:02;;;;;;;4.60;1.60;;;;;;100447.27;;;;106701;1288;28264;-22
2022/05/14 09:34:32;;;;;;;3.50;1.30;;;;;;100447.27;;;;106460;1290;28399;-21
2022/05/14 09:37:13;;;;;;;4.80;1.70;;;;;;100449.34;;;;106735;1285;28492;-21
2022/05/14 09:39:40;;;;;;;5.90;1.80;;;;;;100448.45;;;;106680;1286;28558;-21
2022/05/14 09:42:27;;;;;;;4.10;1.30;;;;;;100451.35;;;;106340;1289;30028;-21
2022/05/14 09:44:55;;;;;;;5.40;1.80;;;;;;100448.17;;;;106388;1288;28304;-21
2022/05/14 09:47:31;;;;;;;4.90;1.90;;;;;;100444.38;;;;106535;1284;30744;-21
2022/05/14 09:50:06;;;;;;;3.60;1.60;;;;;;100439.95;;;;106937;1284;28388;-21
2022/05/14 09:52:36;;;;;;;5.00;1.80;;;;;;100436.29;;;;106784;1285;27842;-23
2022/05/14 09:55:08;;;;;;;5.00;1.90;;;;;;100432.42;;;;106746;1285;27366;-21
2022/05/14 09:58:03;;;;;;;5.20;1.70;;;;;;100437.89;;;;106744;1287;26201;-23
2022/05/14 10:00:38;;;;;;;4.20;1.40;;;;;;100434.80;;;;106430;1287;28420;-21
2022/05/14 10:03:37;;;;;;;5.80;1.80;;;;;;100433.75;;;;106731;1285;27733;-21
2022/05/14 10:06:22;;;;;;;4.80;1.60;;;;;;100432.14;;;;106532;1285;28605;-20
2022/05/14 10:09:26;;;;;;;4.40;1.50;;;;;;100430.02;;;;106575;1286;29189;-21
2022/05/14 10:12:23;;;;;;;4.20;1.50;;;;;;100436.78;;;;106582;1285;26126;-21
2022/05/14 10:21:45;;;;;;;5.70;1.80;;;;;;100426.44;;;;106396;1288;28216;-28
2022/05/14 10:28:04;;;;;;;5.20;1.90;;;;;;100428.69;;;;106751;1287;29546;-29
2022/05/14 10:30:54;;;;;;;4.50;1.70;;;;;;100430.54;;;;106812;1287;25761;-30
2022/05/14 10:33:28;;;;;;;6.30;1.90;;;;;;100422.02;;;;106552;1287;28311;-30
2022/05/14 10:36:04;;;;;;;5.50;2.30;;;;;;100426.02;;;;106635;1287;28500;-30
2022/05/14 10:38:53;;;;;;;4.90;1.70;;;;;;100416.08;;;;106442;1287;28502;-30
2022/05/14 10:41:31;;;;;;;7.30;2.00;;;;;;100412.39;;;;106330;1287;282983;-29
2022/05/14 10:44:06;;;;;;;5.50;1.80;;;;;;100414.05;;;;106541;1287;26328;-28
2022/05/14 10:46:35;;;;;;;4.70;1.80;;;;;;100415.00;;;;106570;1287;27037;-29
2022/05/14 10:49:20;;;;;;;4.70;2.20;;;;;;100416.35;;;;106519;1288;28920;-27
2022/05/14 10:51:53;;;;;;;5.70;1.70;;;;;;100414.02;;;;106528;1287;26909;-30
2022/05/14 10:54:23;;;;;;;4.60;1.60;;;;;;100411.91;;;;106392;1288;31001;-28
2022/05/14 10:57:03;;;;;;;5.10;2.00;;;;;;100409.61;;;;106752;1287;31018;-29
2022/05/14 10:59:37;;;;;;;7.70;2.90;;;;;;100407.05;;;;106695;1287;25879;-29
2022/05/14 11:02:11;;;;;;;5.20;2.00;;;;;;100416.89;;;;106576;1287;29001;-29
2022/05/14 11:04:40;;;;;;;5.80;1.80;;;;;;100411.35;;;;106388;1288;30721;-29
2022/05/14 11:07:10;;;;;;;6.10;1.80;;;;;;100413.64;;;;106357;1288;28514;-29
2022/05/14 11:09:44;;;;;;;4.30;2.20;;;;;;100417.71;;;;106288;1288;26257;-30
2022/05/14 11:12:28;;;;;;;5.90;2.00;;;;;;100420.89;;;;106548;1287;28493;-29
2022/05/14 11:14:58;;;;;;;4.60;2.10;;;;;;100414.20;;;;106428;1288;27041;-29
2022/05/14 11:17:33;;;;;;;5.10;2.00;;;;;;100420.89;;;;106430;1288;28555;-29
2022/05/14 11:20:03;;;;;;;6.90;2.30;;;;;;100426.30;;;;106708;1287;28393;-29
2022/05/14 11:22:37;;;;;;;8.20;2.80;;;;;;100424.36;;;;106685;1287;30896;-28
2022/05/14 11:25:22;;;;;;;6.60;2.20;;;;;;100421.77;;;;106694;1287;25981;-28
2022/05/14 11:28:13;;;;;;;5.80;2.30;;;;;;100422.20;;;;106679;1287;28414;-28
2022/05/14 11:30:53;;;;;;;5.50;2.70;;;;;;100427.55;;;;106564;1288;28082;-28
2022/05/14 11:33:25;;;;;;;6.80;2.30;;;;;;100428.98;;;;106532;1287;28526;-28
2022/05/14 11:35:56;;;;;;;5.70;2.20;;;;;;100435.02;;;;106506;1287;30768;-28
2022/05/14 11:38:26;;;;;;;5.30;2.30;;;;;;100436.05;;;;106558;1287;28351;-28
2022/05/14 11:41:25;;;;;;;5.10;2.00;;;;;;100436.95;;;;106536;1288;28575;-28
2022/05/14 11:43:53;;;;;;;6.00;2.20;;;;;;100441.16;;;;106437;1287;28459;-28
2022/05/14 11:46:30;;;;;;;7.10;2.20;;;;;;100444.11;;;;106436;1288;30812;-28
2022/05/14 11:49:07;;;;;;;5.40;2.40;;;;;;100440.84;;;;106577;1288;28453;-30
2022/05/14 11:52:03;;;;;;;6.20;2.00;;;;;;100441.86;;;;106511;1288;26091;-29
2022/05/14 11:54:40;;;;;;;6.80;2.00;;;;;;100440.73;;;;106596;1287;29297;-29
2022/05/14 11:57:22;;;;;;;6.50;2.30;;;;;;100440.08;;;;106541;1288;28443;-29
2022/05/14 12:00:20;;;;;;;4.60;2.00;;;;;;100444.98;;;;106414;1288;25994;-29
2022/05/14 12:03:01;;;;;;;4.80;2.10;;;;;;100450.44;;;;106531;1287;27613;-29
2022/05/14 12:05:54;;;;;;;6.30;2.00;;;;;;100451.45;;;;106598;1287;26233;-29
2022/05/14 12:08:47;;;;;;;4.70;2.20;;;;;;100458.55;;;;106499;1287;29896;-29
2022/05/14 12:11:22;;;;;;;4.80;1.90;;;;;;100451.35;;;;106530;1287;28400;-29
2022/05/14 12:13:59;;;;;;;5.30;2.10;;;;;;100459.85;;;;106318;1290;28417;-29
2022/05/14 12:16:35;;;;;;;5.80;2.40;;;;;;100466.90;;;;106328;1291;25995;-29
2022/05/14 12:19:09;;;;;;;5.40;2.30;;;;;;100464.00;;;;106446;1288;28410;-29
2022/05/14 12:21:35;;;;;;;5.10;2.00;;;;;;100461.88;;;;106515;1287;28535;-29
2022/05/14 12:24:02;;;;;;;5.60;2.40;;;;;;100462.78;;;;106572;1287;28350;-29
2022/05/14 12:26:34;;;;;;;6.00;2.30;;;;;;100462.67;;;;106334;1290;27904;-29
2022/05/14 12:29:14;;;;;;;6.90;2.70;;;;;;100464.25;;;;106589;1287;28620;-29
2022/05/14 12:34:38;;;;;;;6.70;2.50;;;;;;100471.39;;;;106716;1288;28366;-29
2022/05/14 12:37:25;;;;;;;5.90;2.70;;;;;;100465.47;;;;106525;1288;28284;-30
2022/05/14 12:39:56;;;;;;;4.60;2.30;;;;;;100470.77;;;;106577;1287;28402;-29
2022/05/14 12:42:30;;;;;;;4.80;2.40;;;;;;100470.80;;;;106610;1287;30580;-29
2022/05/14 12:44:58;;;;;;;5.90;2.50;;;;;;100466.89;;;;106664;1287;25849;-29
2022/05/14 12:47:29;;;;;;;6.20;2.40;;;;;;100469.27;;;;106737;1287;26973;-29
2022/05/14 12:49:56;;;;;;;4.90;2.30;;;;;;100468.02;;;;106449;1288;26238;-29
2022/05/14 12:52:28;;;;;;;7.10;2.30;;;;;;100468.32;;;;106707;1287;28491;-29
2022/05/14 12:55:15;;;;;;;4.50;2.00;;;;;;100472.39;;;;106663;1287;28500;-29
2022/05/14 12:57:43;;;;;;;6.50;2.50;;;;;;100474.48;;;;106646;1287;28481;-29
2022/05/14 13:00:15;;;;;;;6.70;2.80;;;;;;100475.96;;;;106566;1287;28179;-29
2022/05/14 13:02:59;;;;;;;5.50;2.30;;;;;;100473.25;;;;106660;1287;28540;-29
2022/05/14 13:05:38;;;;;;;7.20;2.90;;;;;;100468.89;;;;106657;1288;28413;-29
2022/05/14 13:08:15;;;;;;;5.10;2.30;;;;;;100467.70;;;;106639;1287;28421;-29
2022/05/14 13:10:52;;;;;;;6.60;2.40;;;;;;100472.79;;;;106654;1287;29383;-29
2022/05/14 13:13:32;;;;;;;6.60;2.40;;;;;;100472.77;;;;106626;1287;29649;-29
2022/05/14 13:15:58;;;;;;;6.70;2.60;;;;;;100473.50;;;;106513;1287;28591;-29
2022/05/14 13:18:34;;;;;;;6.10;2.60;;;;;;100471.24;;;;106675;1287;28489;-29
2022/05/14 13:21:24;;;;;;;5.80;2.70;;;;;;100469.58;;;;106529;1287;27721;-29
2022/05/14 13:23:56;;;;;;;5.70;2.30;;;;;;100464.27;;;;106632;1287;27999;-29
2022/05/14 13:26:49;;;;;;;5.10;2.50;;;;;;100459.98;;;;106665;1288;29748;-29
2022/05/14 13:29:22;;;;;;;6.20;3.00;;;;;;100454.48;;;;106397;1288;28474;-29
2022/05/14 13:31:51;;;;;;;6.00;2.90;;;;;;100459.90;;;;106655;1288;28486;-29
2022/05/14 13:37:20;;;;;;;5.80;2.80;;;;;;100459.32;;;;106473;1288;30699;-29
2022/05/14 13:39:55;;;;;;;7.10;2.60;;;;;;100463.93;;;;106662;1287;29874;-29
2022/05/14 13:42:43;;;;;;;6.90;4.10;;;;;;100463.69;;;;106718;1287;29695;-29
2022/05/14 13:45:56;;;;;;;6.50;2.40;;;;;;100453.72;;;;106649;1287;26312;-29
2022/05/14 13:48:42;;;;;;;7.90;2.70;;;;;;100449.70;;;;106731;1287;25985;-30
2022/05/14 13:51:18;;;;;;;5.90;2.40;;;;;;100450.28;;;;106738;1287;26747;-30
2022/05/14 13:53:49;;;;;;;5.40;2.60;;;;;;100452.11;;;;106667;1287;28625;-29
2022/05/14 13:56:21;;;;;;;6.80;2.60;;;;;;100454.16;;;;106652;1288;27079;-29